Time;durP1;ratioP1;P1;durP2;ratioP2;P2;SDS_P1;SDS_P2;PMS_P1;PMS_P2;Temp;Humidity;BMP_temperature;BMP_pressure;BME280_temperature;BME280_humidity;BME280_pressure;Samples;Min_cycle;Max_cycle;Signal;HPM_P1;HPM_P2
2023/01/09 00:03:25;;;;;;;41.90;38.10;;;;;;;5.10;90.41;96804.73;107605;1269;25316;-91
2023/01/09 00:05:53;;;;;;;40.40;36.80;;;;;;;5.11;90.62;96797.34;107298;1276;24301;-91
2023/01/09 00:08:22;;;;;;;40.10;36.50;;;;;;;5.10;90.43;96800.98;107386;1254;23878;-90
2023/01/09 00:10:51;;;;;;;38.10;34.70;;;;;;;5.08;90.46;96801.81;109305;1276;22581;-90
2023/01/09 00:13:20;;;;;;;38.50;34.90;;;;;;;5.08;90.47;96797.94;109858;1275;23393;-91
2023/01/09 00:15:48;;;;;;;40.20;36.40;;;;;;;5.07;90.26;96799.35;107979;1276;25328;-91
2023/01/09 00:18:18;;;;;;;34.00;30.90;;;;;;;5.09;90.21;96796.27;107640;1276;25270;-91
2023/01/09 00:20:46;;;;;;;34.40;30.50;;;;;;;5.10;90.07;96790.14;107220;1276;25300;-90
2023/01/09 00:23:15;;;;;;;39.90;36.30;;;;;;;5.06;89.94;96788.41;107039;1276;22566;-91
2023/01/09 00:25:43;;;;;;;38.70;35.10;;;;;;;5.01;90.00;96790.23;107455;1276;23945;-90
2023/01/09 00:28:12;;;;;;;46.80;42.50;;;;;;;4.90;89.69;96799.79;107403;1276;22636;-91
2023/01/09 00:30:40;;;;;;;47.40;42.80;;;;;;;4.78;89.57;96803.70;107399;1256;24226;-90
2023/01/09 00:33:09;;;;;;;46.50;42.20;;;;;;;4.62;89.69;96797.02;107318;1276;24188;-90
2023/01/09 00:35:38;;;;;;;42.80;38.60;;;;;;;4.52;89.62;96803.12;107364;1276;22535;-91
2023/01/09 00:38:06;;;;;;;47.70;43.40;;;;;;;4.47;89.47;96801.73;107602;1276;22489;-91
2023/01/09 00:40:34;;;;;;;47.80;43.50;;;;;;;4.39;89.24;96800.48;108138;1271;22534;-92
2023/01/09 00:43:03;;;;;;;49.60;45.20;;;;;;;4.29;89.21;96805.85;108193;1273;23206;-92
2023/01/09 00:45:31;;;;;;;47.50;43.10;;;;;;;4.19;89.20;96793.06;108075;1275;22532;-91
2023/01/09 00:48:07;;;;;;;46.10;41.80;;;;;;;4.11;89.53;96791.08;107590;1276;25337;-91
2023/01/09 00:50:36;;;;;;;49.50;44.60;;;;;;;4.02;89.39;96793.45;107601;1272;22768;-89
2023/01/09 00:53:14;;;;;;;48.10;43.80;;;;;;;3.95;89.69;96793.81;107242;1275;22532;-90
2023/01/09 00:55:43;;;;;;;57.50;52.40;;;;;;;3.89;89.11;96796.10;107324;1275;24261;-90
2023/01/09 00:58:12;;;;;;;60.30;55.00;;;;;;;3.83;89.34;96793.81;107130;1275;25521;-90
2023/01/09 01:00:41;;;;;;;57.80;52.60;;;;;;;3.77;89.23;96788.16;107545;1275;22529;-91
2023/01/09 01:03:09;;;;;;;58.80;53.30;;;;;;;3.70;89.32;96797.77;107909;1275;22520;-92
2023/01/09 01:08:25;;;;;;;43.30;38.90;;;;;;;3.52;89.19;96785.90;108273;1275;22711;-90
2023/01/09 01:10:53;;;;;;;49.50;44.90;;;;;;;3.34;88.86;96784.52;109243;1273;22613;-91
2023/01/09 01:13:24;;;;;;;50.40;45.80;;;;;;;3.10;88.85;96775.64;108342;1275;22559;-93
2023/01/09 01:15:52;;;;;;;51.50;46.80;;;;;;;3.03;89.03;96773.20;108288;1271;22546;-92
2023/01/09 01:18:20;;;;;;;58.00;52.80;;;;;;;2.98;89.29;96758.59;107504;1275;23367;-92
2023/01/09 01:20:48;;;;;;;53.60;48.80;;;;;;;2.95;89.74;96763.36;107776;1275;25431;-94
2023/01/09 01:23:17;;;;;;;50.70;46.20;;;;;;;2.93;89.39;96761.23;107370;1275;22481;-92
2023/01/09 01:25:45;;;;;;;45.40;41.00;;;;;;;2.84;89.26;96763.82;108795;1275;22569;-92
2023/01/09 01:28:14;;;;;;;41.80;37.90;;;;;;;2.72;89.09;96764.46;109641;1275;22647;-92
2023/01/09 01:30:46;;;;;;;41.30;37.30;;;;;;;2.68;89.19;96762.36;109815;1275;22662;-88
2023/01/09 01:33:14;;;;;;;41.80;37.90;;;;;;;2.69;89.47;96755.70;110273;1275;22518;-87
2023/01/09 01:40:30;;;;;;;42.30;38.20;;;;;;;2.77;89.90;96743.80;110429;1275;22568;-87
2023/01/09 01:42:59;;;;;;;45.10;40.90;;;;;;;2.78;89.75;96755.98;110122;1276;22563;-88
2023/01/09 01:45:28;;;;;;;39.40;35.70;;;;;;;2.75;89.60;96761.48;109702;1276;22531;-93
2023/01/09 01:48:49;;;;;;;41.70;37.80;;;;;;;2.66;89.72;96759.34;108173;1276;22533;-91
2023/01/09 01:51:19;;;;;;;41.90;38.00;;;;;;;2.63;89.92;96752.35;109245;1276;25512;-91
2023/01/09 01:53:57;;;;;;;40.20;36.30;;;;;;;2.65;89.54;96757.49;108437;1276;22611;-92
2023/01/09 02:01:19;;;;;;;39.30;35.70;;;;;;;2.43;90.05;96747.03;108815;1276;24258;-90
2023/01/09 02:03:50;;;;;;;38.80;35.20;;;;;;;2.37;90.15;96742.66;108215;1276;25344;-95
2023/01/09 02:06:18;;;;;;;40.10;36.40;;;;;;;2.37;90.30;96743.98;107861;1276;22542;-92
2023/01/09 02:08:48;;;;;;;40.70;36.70;;;;;;;2.44;90.53;96748.20;107683;1276;22547;-92
2023/01/09 02:16:08;;;;;;;46.50;42.20;;;;;;;2.57;90.08;96746.32;107771;1276;22593;-92
2023/01/09 02:18:50;;;;;;;42.00;37.90;;;;;;;2.54;90.45;96742.77;107958;1273;22528;-88
2023/01/09 02:22:01;;;;;;;41.90;37.90;;;;;;;2.44;90.50;96736.55;107432;1276;22547;-89
2023/01/09 02:24:38;;;;;;;47.30;43.10;;;;;;;2.33;90.42;96729.05;107110;1276;22537;-88
2023/01/09 02:27:45;;;;;;;43.20;39.00;;;;;;;2.34;90.72;96723.20;107011;1276;23286;-87
2023/01/09 02:30:25;;;;;;;42.70;38.70;;;;;;;2.41;90.94;96710.56;106793;1276;24376;-88
2023/01/09 02:33:14;;;;;;;39.40;35.50;;;;;;;2.44;90.79;96718.15;106907;1276;25398;-88
2023/01/09 02:35:59;;;;;;;38.70;35.10;;;;;;;2.49;90.89;96712.97;107457;1276;22497;-88
2023/01/09 02:38:53;;;;;;;42.10;38.10;;;;;;;2.49;91.20;96713.23;107226;1276;22651;-86
2023/01/09 02:41:55;;;;;;;46.00;41.90;;;;;;;2.44;91.24;96719.74;107144;1276;22553;-89
2023/01/09 02:44:27;;;;;;;45.20;40.80;;;;;;;2.44;91.49;96729.63;107196;1273;22648;-85
2023/01/09 02:47:28;;;;;;;41.20;37.20;;;;;;;2.48;91.37;96725.77;107181;1276;24260;-87
2023/01/09 02:50:02;;;;;;;62.30;56.90;;;;;;;2.50;91.15;96727.00;107145;1276;24155;-88
2023/01/09 02:52:40;;;;;;;53.00;48.50;;;;;;;2.47;90.80;96731.05;107154;1276;23036;-88
2023/01/09 02:55:23;;;;;;;41.60;37.70;;;;;;;2.42;91.02;96731.09;107036;1276;25307;-88
2023/01/09 02:58:22;;;;;;;40.30;36.50;;;;;;;2.28;91.03;96720.70;107081;1276;23843;-87
2023/01/09 03:01:06;;;;;;;40.90;37.20;;;;;;;2.15;91.01;96719.58;107143;1276;25296;-88
2023/01/09 03:03:45;;;;;;;46.90;42.60;;;;;;;2.10;91.20;96728.42;107116;1276;24357;-89
2023/01/09 03:06:30;;;;;;;43.00;39.20;;;;;;;2.08;90.86;96733.48;107143;1276;22569;-89
2023/01/09 03:09:07;;;;;;;40.50;36.60;;;;;;;2.05;90.97;96731.80;107062;1276;25423;-90
2023/01/09 03:12:08;;;;;;;44.00;39.80;;;;;;;2.02;90.79;96726.61;107112;1276;24263;-89
2023/01/09 03:14:41;;;;;;;48.40;44.00;;;;;;;1.96;90.83;96714.13;107121;1276;24292;-89
2023/01/09 03:17:14;;;;;;;39.80;36.10;;;;;;;1.94;91.34;96718.66;107162;1276;23281;-89
2023/01/09 03:19:45;;;;;;;41.50;37.70;;;;;;;1.88;91.32;96716.72;107179;1276;22542;-88
2023/01/09 03:22:13;;;;;;;39.70;36.20;;;;;;;1.71;91.31;96721.30;107210;1276;25165;-88
2023/01/09 03:24:41;;;;;;;42.10;38.40;;;;;;;1.65;91.64;96705.01;107131;1276;24449;-88
2023/01/09 03:27:10;;;;;;;40.50;37.00;;;;;;;1.65;91.59;96699.85;106946;1276;24684;-89
2023/01/09 03:29:38;;;;;;;40.70;37.10;;;;;;;1.60;91.44;96697.75;106993;1276;22538;-88
2023/01/09 03:32:07;;;;;;;40.90;37.30;;;;;;;1.57;91.48;96703.65;107804;1276;22579;-88
2023/01/09 03:34:35;;;;;;;41.60;37.80;;;;;;;1.55;91.76;96696.42;108303;1276;24275;-86
2023/01/09 03:37:04;;;;;;;44.10;40.40;;;;;;;1.56;91.98;96687.83;109514;1273;22913;-86
2023/01/09 03:39:32;;;;;;;45.20;41.00;;;;;;;1.50;92.16;96683.17;107630;1276;22492;-86
2023/01/09 03:42:00;;;;;;;42.40;38.40;;;;;;;1.36;92.24;96674.88;107174;1262;22702;-86
2023/01/09 03:49:16;;;;;;;40.40;36.40;;;;;;;1.22;92.41;96665.94;107489;1276;22527;-87
2023/01/09 03:51:44;;;;;;;40.80;37.00;;;;;;;1.28;92.89;96658.91;107366;1276;22626;-87
2023/01/09 03:54:12;;;;;;;44.20;39.90;;;;;;;1.38;93.03;96649.70;108067;1276;25452;-88
2023/01/09 03:56:40;;;;;;;41.80;38.10;;;;;;;1.48;93.23;96637.79;107607;1276;25306;-86
2023/01/09 03:59:08;;;;;;;39.40;35.80;;;;;;;1.57;93.23;96631.48;107612;1276;23900;-87
2023/01/09 04:01:36;;;;;;;38.20;34.80;;;;;;;1.70;93.46;96634.46;107800;1276;22497;-88
2023/01/09 04:04:04;;;;;;;37.90;34.20;;;;;;;1.83;93.12;96627.96;107015;1276;24236;-87
2023/01/09 04:06:33;;;;;;;37.00;33.50;;;;;;;1.91;93.09;96622.88;107164;1276;22562;-87
2023/01/09 04:09:01;;;;;;;38.30;34.80;;;;;;;2.00;93.08;96622.62;107045;1276;24321;-87
2023/01/09 04:11:29;;;;;;;37.70;33.80;;;;;;;2.07;93.25;96611.95;107216;1276;22578;-86
2023/01/09 04:13:57;;;;;;;37.40;34.00;;;;;;;2.06;93.23;96613.19;107243;1276;24373;-86
2023/01/09 04:16:25;;;;;;;35.50;32.10;;;;;;;2.10;93.46;96609.27;107223;1276;22667;-87
2023/01/09 04:18:53;;;;;;;36.20;32.80;;;;;;;2.15;93.56;96611.42;107133;1276;23140;-86
2023/01/09 04:21:21;;;;;;;36.90;33.40;;;;;;;2.22;93.62;96607.44;107041;1276;22959;-85
2023/01/09 04:23:49;;;;;;;38.40;34.90;;;;;;;2.30;93.33;96604.09;107201;1276;22643;-85
2023/01/09 04:26:17;;;;;;;38.70;35.20;;;;;;;2.35;93.41;96605.81;107144;1276;22829;-86
2023/01/09 04:28:46;;;;;;;36.60;33.40;;;;;;;2.36;93.59;96602.25;107216;1276;22544;-87
2023/01/09 04:31:14;;;;;;;38.20;34.80;;;;;;;2.37;93.81;96604.73;107274;1276;23114;-86
2023/01/09 04:33:42;;;;;;;37.90;34.30;;;;;;;2.38;93.80;96606.53;107014;1276;24765;-86
2023/01/09 04:36:10;;;;;;;35.90;32.50;;;;;;;2.41;93.79;96602.27;107117;1276;25354;-86
2023/01/09 04:38:43;;;;;;;36.20;32.90;;;;;;;2.45;93.94;96602.77;107029;1276;22534;-86
2023/01/09 04:41:47;;;;;;;37.60;34.10;;;;;;;2.48;93.87;96598.90;107193;1276;24222;-87
2023/01/09 04:43:59;;;;;;;32.80;29.90;;;;;;;2.54;93.96;96594.71;107072;1276;25437;-88
2023/01/09 04:46:27;;;;;;;33.70;30.70;;;;;;;2.63;94.33;96585.81;107272;1276;22689;-86
2023/01/09 04:48:55;;;;;;;36.60;33.50;;;;;;;2.74;94.89;96584.38;107383;1276;22538;-87
2023/01/09 04:51:23;;;;;;;38.20;34.80;;;;;;;2.85;94.70;96584.27;107117;1276;22782;-87
2023/01/09 04:53:51;;;;;;;42.30;38.50;;;;;;;2.92;93.97;96582.14;107194;1276;22652;-85
2023/01/09 04:56:19;;;;;;;35.10;31.90;;;;;;;2.96;94.03;96580.17;108858;1276;22524;-90
2023/01/09 04:58:49;;;;;;;30.40;27.50;;;;;;;3.05;94.53;96577.48;108046;1276;22648;-92
2023/01/09 05:01:17;;;;;;;28.50;26.00;;;;;;;3.17;94.75;96576.55;108205;1276;25295;-92
2023/01/09 05:03:45;;;;;;;26.20;23.80;;;;;;;3.31;94.89;96575.92;107833;1276;22668;-92
2023/01/09 05:06:14;;;;;;;24.10;21.80;;;;;;;3.44;94.98;96571.35;108288;1276;22576;-92
2023/01/09 05:08:42;;;;;;;23.80;21.70;;;;;;;3.57;94.97;96571.24;108240;1276;22534;-93
2023/01/09 05:12:06;;;;;;;26.50;24.00;;;;;;;3.72;94.90;96572.92;108126;1273;22567;-93
2023/01/09 05:14:34;;;;;;;36.30;32.90;;;;;;;3.85;94.31;96574.44;107961;1276;25252;-92
2023/01/09 05:17:03;;;;;;;39.10;35.60;;;;;;;3.88;94.27;96566.39;107890;1276;25308;-91
2023/01/09 05:19:31;;;;;;;34.60;31.50;;;;;;;3.89;94.16;96561.44;107593;1267;25924;-90
2023/01/09 05:22:00;;;;;;;33.50;30.40;;;;;;;3.89;94.21;96561.65;107601;1276;23505;-90
2023/01/09 05:24:29;;;;;;;33.40;30.50;;;;;;;3.91;94.34;96562.36;107594;1276;22684;-90
2023/01/09 05:26:57;;;;;;;36.10;32.70;;;;;;;3.93;94.10;96554.65;107323;1276;24193;-90
2023/01/09 05:29:53;;;;;;;41.80;38.20;;;;;;;3.96;94.52;96551.79;107263;1276;22653;-91
2023/01/09 05:32:21;;;;;;;37.00;33.70;;;;;;;3.94;93.88;96554.06;107138;1276;22481;-91
2023/01/09 05:34:49;;;;;;;42.40;38.70;;;;;;;3.92;94.02;96552.60;107246;1276;22556;-91
2023/01/09 05:37:17;;;;;;;39.70;36.00;;;;;;;3.89;93.92;96547.73;108465;1276;22502;-88
2023/01/09 05:39:45;;;;;;;34.20;31.10;;;;;;;3.87;94.08;96544.24;109127;1265;22643;-89
2023/01/09 05:42:13;;;;;;;29.90;27.40;;;;;;;3.89;94.32;96542.09;107671;1276;22655;-91
2023/01/09 05:44:42;;;;;;;28.50;25.60;;;;;;;3.95;94.53;96539.66;107416;1270;24197;-88
2023/01/09 05:47:10;;;;;;;27.50;25.00;;;;;;;4.03;94.51;96531.96;107252;1276;22552;-90
2023/01/09 05:49:59;;;;;;;25.60;23.40;;;;;;;4.15;94.47;96531.42;107510;1276;24208;-88
2023/01/09 05:52:28;;;;;;;29.60;27.00;;;;;;;4.24;94.51;96531.27;107023;1276;25311;-86
2023/01/09 05:54:56;;;;;;;31.10;28.30;;;;;;;4.29;94.12;96532.64;107313;1276;23154;-84
2023/01/09 05:57:24;;;;;;;28.00;25.40;;;;;;;4.32;94.06;96535.36;107001;1276;23044;-85
2023/01/09 05:59:52;;;;;;;29.60;26.80;;;;;;;4.37;93.75;96537.09;107135;1262;22661;-87
2023/01/09 06:02:20;;;;;;;29.00;26.40;;;;;;;4.43;93.87;96532.47;107123;1253;22692;-88
2023/01/09 06:04:48;;;;;;;29.80;27.10;;;;;;;4.46;94.01;96536.99;107083;1255;22647;-88
2023/01/09 06:07:17;;;;;;;33.70;30.80;;;;;;;4.46;93.74;96530.85;107195;1276;22620;-87
2023/01/09 06:09:49;;;;;;;35.80;32.70;;;;;;;4.43;93.48;96532.14;107061;1276;22527;-86
2023/01/09 06:12:17;;;;;;;36.40;33.00;;;;;;;4.37;93.39;96528.30;107514;1276;22533;-85
2023/01/09 06:14:54;;;;;;;36.10;32.80;;;;;;;4.32;93.29;96529.12;107190;1276;23808;-86
2023/01/09 06:17:22;;;;;;;37.00;33.80;;;;;;;4.32;93.27;96524.98;107192;1276;22495;-89
2023/01/09 06:24:20;;;;;;;35.20;31.90;;;;;;;4.25;93.48;96522.67;107563;1276;22632;-87
2023/01/09 06:31:34;;;;;;;27.20;24.60;;;;;;;4.27;93.58;96524.23;107357;1276;22540;-87
2023/01/09 06:34:03;;;;;;;25.10;22.80;;;;;;;4.33;93.73;96525.05;107336;1269;25371;-86
2023/01/09 06:36:32;;;;;;;25.50;23.10;;;;;;;4.39;93.66;96521.02;107308;1276;25295;-87
2023/01/09 06:39:00;;;;;;;27.40;24.80;;;;;;;4.42;93.99;96526.13;107285;1276;22569;-87
2023/01/09 06:42:20;;;;;;;29.10;26.50;;;;;;;4.45;94.04;96525.83;107205;1277;26013;-88
2023/01/09 06:44:49;;;;;;;28.80;26.10;;;;;;;4.47;94.05;96525.25;107326;1277;22696;-85
2023/01/09 06:47:17;;;;;;;27.00;24.40;;;;;;;4.48;93.92;96524.91;107132;1277;22567;-86
2023/01/09 06:49:51;;;;;;;27.70;25.20;;;;;;;4.50;94.11;96523.65;107096;1277;22642;-86
2023/01/09 06:52:19;;;;;;;27.20;24.80;;;;;;;4.50;94.09;96527.65;107225;1277;22636;-90
2023/01/09 06:54:47;;;;;;;27.20;24.80;;;;;;;4.50;93.97;96519.48;107943;1277;23703;-90
2023/01/09 06:57:15;;;;;;;30.20;27.40;;;;;;;4.52;94.10;96521.33;107202;1277;22526;-89
2023/01/09 06:59:43;;;;;;;25.20;22.90;;;;;;;4.53;94.23;96522.16;107267;1277;22664;-89
2023/01/09 07:02:20;;;;;;;24.70;22.60;;;;;;;4.56;94.11;96523.77;107576;1277;25333;-91
2023/01/09 07:04:49;;;;;;;23.70;21.40;;;;;;;4.60;94.14;96529.66;107459;1255;22592;-89
2023/01/09 07:07:18;;;;;;;24.90;22.60;;;;;;;4.65;94.11;96532.46;107546;1274;22530;-90
2023/01/09 07:09:47;;;;;;;26.70;24.30;;;;;;;4.71;94.30;96535.83;107449;1277;22530;-89
2023/01/09 07:12:15;;;;;;;25.70;23.30;;;;;;;4.73;94.21;96528.42;107058;1265;22615;-88
2023/01/09 07:14:43;;;;;;;26.70;24.40;;;;;;;4.75;94.32;96526.79;107167;1277;22613;-85
2023/01/09 07:17:12;;;;;;;25.60;23.30;;;;;;;4.77;94.09;96526.81;107183;1270;24282;-84
2023/01/09 07:19:41;;;;;;;27.00;24.40;;;;;;;4.80;94.07;96528.98;107123;1277;22578;-85
2023/01/09 07:22:09;;;;;;;26.30;23.80;;;;;;;4.86;94.14;96523.60;107133;1277;25435;-89
2023/01/09 07:25:07;;;;;;;25.40;23.20;;;;;;;4.93;94.06;96531.60;107080;1277;22550;-89
2023/01/09 07:27:36;;;;;;;23.60;21.50;;;;;;;5.00;94.29;96531.34;107363;1277;25284;-91
2023/01/09 07:30:05;;;;;;;23.70;21.60;;;;;;;5.06;94.26;96527.50;107389;1277;25288;-91
2023/01/09 07:32:37;;;;;;;23.40;21.10;;;;;;;5.10;94.10;96531.27;108022;1277;22629;-92
2023/01/09 07:35:10;;;;;;;22.60;20.40;;;;;;;5.17;94.14;96533.17;107692;1274;25472;-89
2023/01/09 07:37:38;;;;;;;20.10;18.10;;;;;;;5.26;94.14;96529.84;107922;1277;202094;-88
2023/01/09 07:40:07;;;;;;;20.70;17.80;;;;;;;5.74;96.59;96520.23;107650;1277;26078;-87
2023/01/09 07:42:36;;;;;;;20.50;18.10;;;;;;;6.48;96.58;96525.76;107616;1277;22546;-88
2023/01/09 07:45:05;;;;;;;20.00;18.10;;;;;;;6.72;94.56;96529.02;107306;1277;24720;-85
2023/01/09 07:47:33;;;;;;;22.60;20.40;;;;;;;6.68;93.67;96529.34;106982;1277;22536;-84
2023/01/09 07:50:01;;;;;;;25.30;23.00;;;;;;;6.61;93.54;96534.49;107022;1277;23864;-85
2023/01/09 07:52:29;;;;;;;24.90;22.70;;;;;;;6.52;93.39;96532.58;107024;1277;24243;-87
2023/01/09 07:54:57;;;;;;;23.70;21.60;;;;;;;6.43;93.29;96530.45;106945;1267;24231;-85
2023/01/09 07:57:25;;;;;;;22.00;19.90;;;;;;;6.33;93.42;96529.03;107091;1277;24091;-85
2023/01/09 07:59:53;;;;;;;20.00;18.00;;;;;;;6.28;93.12;96531.13;106931;1277;24212;-86
2023/01/09 08:02:21;;;;;;;20.00;18.20;;;;;;;6.24;93.14;96532.29;107030;1277;23880;-86
2023/01/09 08:04:49;;;;;;;20.20;18.30;;;;;;;6.23;93.00;96530.55;106988;1277;22531;-87
2023/01/09 08:07:17;;;;;;;20.50;18.60;;;;;;;6.20;92.71;96528.30;107751;1257;22652;-87
2023/01/09 08:09:45;;;;;;;21.60;19.60;;;;;;;6.19;92.64;96524.02;107114;1274;22565;-87
2023/01/09 08:16:04;;;;;;;21.20;19.20;;;;;;;6.21;91.85;96515.45;107267;1276;22687;-86
2023/01/09 08:18:32;;;;;;;21.00;19.10;;;;;;;6.24;91.66;96507.09;107279;1276;22828;-86
2023/01/09 08:21:00;;;;;;;24.00;21.80;;;;;;;6.27;91.66;96509.38;107327;1276;25320;-85
2023/01/09 08:23:28;;;;;;;23.20;21.20;;;;;;;6.28;91.45;96509.17;107141;1273;22532;-87
2023/01/09 08:25:56;;;;;;;23.20;21.10;;;;;;;6.29;91.85;96509.15;107332;1276;22549;-86
2023/01/09 08:28:24;;;;;;;23.60;21.50;;;;;;;6.31;91.58;96504.73;107211;1276;24218;-85
2023/01/09 08:31:23;;;;;;;23.90;21.90;;;;;;;6.34;91.61;96500.15;107048;1276;24401;-87
2023/01/09 08:33:51;;;;;;;23.80;21.60;;;;;;;6.42;91.75;96492.11;107362;1276;22535;-86
2023/01/09 08:36:19;;;;;;;25.00;22.80;;;;;;;6.49;91.59;96495.98;107156;1276;22622;-86
2023/01/09 08:38:47;;;;;;;24.00;21.90;;;;;;;6.57;91.75;96498.81;107362;1276;22632;-86
2023/01/09 08:47:05;;;;;;;35.40;32.00;;;;;;;6.74;91.58;96506.91;107533;1276;25279;-83
2023/01/09 08:50:03;;;;;;;34.80;31.60;;;;;;;6.79;91.22;96510.63;107117;1276;25437;-85
2023/01/09 08:52:31;;;;;;;35.20;31.90;;;;;;;6.82;91.00;96503.86;107176;1253;22883;-85
2023/01/09 08:54:59;;;;;;;35.40;32.00;;;;;;;6.85;91.26;96513.48;107416;1276;22686;-86
2023/01/09 08:57:27;;;;;;;33.00;30.20;;;;;;;6.88;91.27;96515.77;107455;1276;22526;-86
2023/01/09 08:59:55;;;;;;;35.20;31.90;;;;;;;6.89;91.16;96521.80;107349;1276;22764;-85
2023/01/09 09:02:23;;;;;;;32.60;29.60;;;;;;;6.89;91.00;96519.71;107364;1276;22569;-88
2023/01/09 09:04:52;;;;;;;30.80;27.60;;;;;;;6.92;91.10;96511.38;107460;1276;24265;-87
2023/01/09 09:07:25;;;;;;;28.40;25.60;;;;;;;7.01;91.04;96511.52;108799;1276;22750;-85
2023/01/09 09:09:55;;;;;;;27.20;24.80;;;;;;;7.08;90.82;96508.70;110455;1276;22485;-86
2023/01/09 09:12:23;;;;;;;21.90;19.90;;;;;;;7.14;90.70;96507.84;110360;1276;22233;-87
2023/01/09 09:17:39;;;;;;;23.50;21.20;;;;;;;7.20;90.62;96502.70;107974;1273;22640;-85
2023/01/09 09:20:11;;;;;;;20.90;19.00;;;;;;;7.19;89.88;96504.20;107986;1276;25258;-87
2023/01/09 09:22:39;;;;;;;21.50;19.50;;;;;;;7.15;89.74;96500.56;107672;1265;22698;-86
2023/01/09 09:25:07;;;;;;;20.20;18.30;;;;;;;7.13;89.47;96495.92;107581;1276;22639;-87
2023/01/09 09:27:36;;;;;;;21.80;19.70;;;;;;;7.14;89.62;96493.15;107283;1276;24215;-86
2023/01/09 09:30:06;;;;;;;22.20;20.10;;;;;;;7.15;89.48;96488.70;107154;1276;22705;-86
2023/01/09 09:32:35;;;;;;;23.80;21.60;;;;;;;7.15;89.52;96483.05;107524;1276;24204;-84
2023/01/09 09:35:04;;;;;;;29.70;27.00;;;;;;;7.14;89.53;96481.70;107904;1276;24435;-85
2023/01/09 09:37:32;;;;;;;32.40;29.30;;;;;;;7.11;88.79;96474.80;107179;1272;25327;-85
2023/01/09 09:40:01;;;;;;;35.80;32.30;;;;;;;7.11;88.99;96477.11;107208;1276;22582;-85
2023/01/09 09:46:03;;;;;;;42.30;38.40;;;;;;;7.08;88.53;96475.87;107065;1276;22576;-84
2023/01/09 09:48:42;;;;;;;43.50;39.60;;;;;;;7.05;88.99;96474.54;107299;1276;24232;-85
2023/01/09 09:51:43;;;;;;;40.50;36.90;;;;;;;7.02;88.09;96467.41;107243;1276;22763;-84
2023/01/09 09:54:11;;;;;;;35.50;32.40;;;;;;;6.95;88.00;96459.13;107354;1276;22536;-83
2023/01/09 09:56:49;;;;;;;36.50;33.10;;;;;;;6.94;88.04;96454.23;107180;1276;22558;-85
2023/01/09 09:59:20;;;;;;;38.20;34.60;;;;;;;6.96;88.32;96447.46;107307;1276;23079;-87
2023/01/09 10:01:54;;;;;;;34.50;31.50;;;;;;;7.00;88.19;96443.88;107952;1276;23343;-85
2023/01/09 10:09:01;;;;;;;31.70;29.00;;;;;;;7.01;88.03;96438.23;107171;1276;22540;-89
2023/01/09 10:11:44;;;;;;;26.40;24.00;;;;;;;7.01;88.08;96440.66;107586;1257;22546;-87
2023/01/09 10:14:12;;;;;;;29.80;26.80;;;;;;;7.04;87.70;96443.96;107202;1276;22577;-86
2023/01/09 10:17:03;;;;;;;24.90;22.30;;;;;;;7.11;88.16;96446.70;107159;1276;23398;-87
2023/01/09 10:20:09;;;;;;;26.30;23.80;;;;;;;7.16;88.21;96453.86;107252;1276;24282;-86
2023/01/09 10:23:12;;;;;;;27.80;25.00;;;;;;;7.20;88.51;96450.60;107382;1276;25387;-87
2023/01/09 10:26:14;;;;;;;26.20;23.70;;;;;;;7.25;88.00;96445.98;107137;1276;23307;-86
2023/01/09 10:28:45;;;;;;;25.90;23.30;;;;;;;7.26;88.44;96444.47;107195;1276;25270;-88
2023/01/09 10:31:28;;;;;;;24.50;21.70;;;;;;;7.33;87.97;96445.95;107339;1276;22617;-88
2023/01/09 10:34:27;;;;;;;22.50;20.40;;;;;;;7.39;88.21;96442.13;107357;1276;24360;-87
2023/01/09 10:37:18;;;;;;;22.80;20.60;;;;;;;7.42;88.03;96435.98;107310;1273;22548;-88
2023/01/09 10:39:58;;;;;;;20.70;18.70;;;;;;;7.46;87.83;96434.38;107137;1276;22792;-88
2023/01/09 10:42:44;;;;;;;21.60;19.30;;;;;;;7.47;87.74;96428.69;107307;1273;22735;-88
2023/01/09 10:45:49;;;;;;;21.60;19.60;;;;;;;7.50;88.02;96429.68;107117;1267;25308;-89
2023/01/09 10:48:36;;;;;;;21.70;19.60;;;;;;;7.56;87.75;96427.52;107117;1276;22748;-87
2023/01/09 10:51:38;;;;;;;22.30;20.00;;;;;;;7.63;87.86;96421.46;107186;1276;23913;-88
2023/01/09 10:54:13;;;;;;;25.10;22.40;;;;;;;7.71;87.86;96416.37;107408;1276;22594;-89
2023/01/09 10:56:46;;;;;;;26.00;23.60;;;;;;;7.76;87.84;96418.80;107136;1276;22541;-88
2023/01/09 10:59:15;;;;;;;26.00;23.60;;;;;;;7.81;88.27;96422.39;107365;1276;22665;-89
2023/01/09 11:01:43;;;;;;;28.60;25.80;;;;;;;7.82;87.97;96421.83;107185;1276;22784;-89
2023/01/09 11:04:34;;;;;;;26.30;23.60;;;;;;;7.82;87.85;96419.67;107198;1253;24874;-89
2023/01/09 11:11:39;;;;;;;28.90;26.20;;;;;;;7.94;88.32;96419.05;107363;1276;24037;-89
2023/01/09 11:18:17;;;;;;;27.00;24.40;;;;;;;7.94;88.19;96422.20;107399;1276;22648;-87
2023/01/09 11:20:46;;;;;;;25.00;22.60;;;;;;;7.93;88.12;96424.81;107213;1276;22571;-89
2023/01/09 11:23:27;;;;;;;23.50;20.80;;;;;;;7.93;88.21;96425.73;107335;1276;22573;-89
2023/01/09 11:25:59;;;;;;;16.20;14.50;;;;;;;7.94;88.42;96419.45;107502;1276;22587;-88
2023/01/09 11:28:28;;;;;;;11.40;9.90;;;;;;;7.99;88.22;96417.39;107297;1276;22539;-88
2023/01/09 11:30:59;;;;;;;10.90;9.80;;;;;;;8.06;88.61;96415.48;107534;1276;25253;-87
2023/01/09 11:33:40;;;;;;;9.50;8.60;;;;;;;8.10;88.62;96417.12;107359;1276;24165;-89
2023/01/09 11:36:34;;;;;;;8.00;6.20;;;;;;;8.12;88.34;96416.30;108252;1258;22542;-91
2023/01/09 11:39:03;;;;;;;7.00;5.20;;;;;;;8.14;88.22;96421.73;108260;1276;22555;-86
2023/01/09 11:41:34;;;;;;;9.00;5.10;;;;;;;8.18;88.18;96422.28;108132;1276;25298;-85
2023/01/09 11:44:03;;;;;;;6.60;5.80;;;;;;;8.22;88.30;96419.45;107677;1276;24197;-88
2023/01/09 11:46:42;;;;;;;208.70;161.90;;;;;;;8.23;88.62;96416.05;107559;1276;25319;-87
2023/01/09 11:49:13;;;;;;;25.40;11.50;;;;;;;8.22;88.51;96415.70;107396;1276;22717;-86
2023/01/09 11:51:43;;;;;;;27.30;24.50;;;;;;;8.20;88.57;96411.26;107498;1276;22537;-89
2023/01/09 11:54:29;;;;;;;11.80;10.50;;;;;;;8.21;88.78;96411.13;107388;1276;22584;-89
2023/01/09 11:56:57;;;;;;;9.40;8.10;;;;;;;8.24;89.16;96413.10;107421;1276;22530;-89
2023/01/09 11:59:27;;;;;;;7.20;5.90;;;;;;;8.26;89.07;96414.50;107432;1276;22595;-87
2023/01/09 12:02:35;;;;;;;8.20;7.20;;;;;;;8.29;89.11;96414.36;107187;1276;22742;-87
2023/01/09 12:05:38;;;;;;;7.20;6.30;;;;;;;8.29;88.85;96416.66;107370;1276;22527;-88
2023/01/09 12:08:14;;;;;;;9.40;6.70;;;;;;;8.28;89.36;96416.61;107205;1276;24099;-87
2023/01/09 12:10:51;;;;;;;11.10;9.90;;;;;;;8.31;89.33;96417.55;107113;1276;22584;-89
2023/01/09 12:13:37;;;;;;;9.60;8.10;;;;;;;8.37;89.49;96417.09;107434;1276;22663;-88
2023/01/09 12:16:34;;;;;;;9.50;8.40;;;;;;;8.42;89.64;96409.74;107388;1276;25199;-87
2023/01/09 12:19:05;;;;;;;9.20;8.30;;;;;;;8.48;89.76;96405.83;107399;1274;22570;-89
2023/01/09 12:21:47;;;;;;;13.40;12.00;;;;;;;8.49;89.48;96396.73;107191;1276;22537;-87
2023/01/09 12:24:27;;;;;;;14.90;13.60;;;;;;;8.50;89.61;96397.29;107579;1276;24072;-87
2023/01/09 12:27:04;;;;;;;21.70;19.40;;;;;;;8.52;89.77;96400.11;107190;1276;22666;-86
2023/01/09 12:30:01;;;;;;;23.90;21.80;;;;;;;8.54;89.70;96399.16;107302;1276;22567;-86
2023/01/09 12:32:35;;;;;;;26.70;24.30;;;;;;;8.55;89.95;96394.54;107393;1276;22530;-87
2023/01/09 12:35:03;;;;;;;27.60;25.20;;;;;;;8.58;89.96;96388.91;107189;1276;25296;-85
2023/01/09 12:37:37;;;;;;;28.20;25.80;;;;;;;8.58;89.98;96392.35;107403;1276;22566;-88
2023/01/09 12:40:14;;;;;;;26.40;23.90;;;;;;;8.56;89.74;96395.86;107514;1276;22531;-85
2023/01/09 12:42:57;;;;;;;26.60;24.10;;;;;;;8.51;90.08;96397.46;107348;1276;24328;-85
2023/01/09 12:45:52;;;;;;;29.40;26.80;;;;;;;8.50;90.27;96400.85;107313;1276;22544;-86
2023/01/09 12:48:47;;;;;;;22.60;20.50;;;;;;;8.51;90.34;96393.83;107299;1276;22559;-86
2023/01/09 12:51:45;;;;;;;27.20;24.60;;;;;;;8.52;90.21;96395.40;107166;1276;25319;-85